sensor_id;sensor_type;location;lat;lon;timestamp;P1;durP1;ratioP1;P2;durP2;ratioP2
21503;SDS011;10913;51.992;9.228;2023-08-30T00:00:54;2.80;;;2.50;;
21503;SDS011;10913;51.992;9.228;2023-08-30T00:03:19;4.85;;;2.50;;
21503;SDS011;10913;51.992;9.228;2023-08-30T00:05:44;2.58;;;2.38;;
21503;SDS011;10913;51.992;9.228;2023-08-30T00:08:10;2.78;;;2.58;;
21503;SDS011;10913;51.992;9.228;2023-08-30T00:10:35;2.90;;;2.60;;
21503;SDS011;10913;51.992;9.228;2023-08-30T00:13:02;4.07;;;2.50;;
21503;SDS011;10913;51.992;9.228;2023-08-30T00:15:28;2.90;;;2.60;;
21503;SDS011;10913;51.992;9.228;2023-08-30T00:17:54;2.80;;;2.33;;
21503;SDS011;10913;51.992;9.228;2023-08-30T00:20:19;3.38;;;2.63;;
21503;SDS011;10913;51.992;9.228;2023-08-30T00:22:46;4.63;;;2.53;;
21503;SDS011;10913;51.992;9.228;2023-08-30T00:25:13;4.35;;;2.47;;
21503;SDS011;10913;51.992;9.228;2023-08-30T00:27:39;3.80;;;2.40;;
21503;SDS011;10913;51.992;9.228;2023-08-30T00:30:05;2.70;;;2.47;;
21503;SDS011;10913;51.992;9.228;2023-08-30T00:32:30;3.53;;;2.80;;
21503;SDS011;10913;51.992;9.228;2023-08-30T00:34:56;2.45;;;2.28;;
21503;SDS011;10913;51.992;9.228;2023-08-30T00:37:21;3.90;;;2.38;;
21503;SDS011;10913;51.992;9.228;2023-08-30T00:39:46;3.63;;;2.50;;
21503;SDS011;10913;51.992;9.228;2023-08-30T00:42:12;2.75;;;2.50;;
21503;SDS011;10913;51.992;9.228;2023-08-30T00:44:37;3.00;;;2.70;;
21503;SDS011;10913;51.992;9.228;2023-08-30T00:47:03;2.85;;;2.63;;
21503;SDS011;10913;51.992;9.228;2023-08-30T00:49:29;4.35;;;2.70;;
21503;SDS011;10913;51.992;9.228;2023-08-30T00:51:56;3.03;;;2.58;;
21503;SDS011;10913;51.992;9.228;2023-08-30T00:54:22;2.80;;;2.60;;
21503;SDS011;10913;51.992;9.228;2023-08-30T00:56:48;2.70;;;2.50;;
21503;SDS011;10913;51.992;9.228;2023-08-30T00:59:15;2.90;;;2.70;;
21503;SDS011;10913;51.992;9.228;2023-08-30T01:01:41;2.78;;;2.58;;
21503;SDS011;10913;51.992;9.228;2023-08-30T01:04:06;3.22;;;2.70;;
21503;SDS011;10913;51.992;9.228;2023-08-30T01:06:32;3.78;;;2.50;;
21503;SDS011;10913;51.992;9.228;2023-08-30T01:09:00;3.97;;;2.80;;
21503;SDS011;10913;51.992;9.228;2023-08-30T01:11:36;2.75;;;2.53;;
21503;SDS011;10913;51.992;9.228;2023-08-30T01:14:09;3.15;;;2.90;;
21503;SDS011;10913;51.992;9.228;2023-08-30T01:16:40;3.95;;;2.70;;
21503;SDS011;10913;51.992;9.228;2023-08-30T01:21:56;3.10;;;2.90;;
21503;SDS011;10913;51.992;9.228;2023-08-30T01:24:32;2.90;;;2.60;;
21503;SDS011;10913;51.992;9.228;2023-08-30T01:27:08;3.10;;;2.80;;
21503;SDS011;10913;51.992;9.228;2023-08-30T01:29:36;3.10;;;2.80;;
21503;SDS011;10913;51.992;9.228;2023-08-30T01:32:03;3.88;;;3.10;;
21503;SDS011;10913;51.992;9.228;2023-08-30T01:34:30;3.20;;;2.97;;
21503;SDS011;10913;51.992;9.228;2023-08-30T01:36:56;3.88;;;3.08;;
21503;SDS011;10913;51.992;9.228;2023-08-30T01:39:23;3.38;;;2.95;;
21503;SDS011;10913;51.992;9.228;2023-08-30T01:41:49;3.53;;;3.22;;
21503;SDS011;10913;51.992;9.228;2023-08-30T01:44:17;3.38;;;3.08;;
21503;SDS011;10913;51.992;9.228;2023-08-30T01:46:42;3.75;;;3.30;;
21503;SDS011;10913;51.992;9.228;2023-08-30T01:49:10;4.97;;;3.50;;
21503;SDS011;10913;51.992;9.228;2023-08-30T01:51:37;5.47;;;3.50;;
21503;SDS011;10913;51.992;9.228;2023-08-30T01:54:03;3.40;;;3.10;;
21503;SDS011;10913;51.992;9.228;2023-08-30T01:56:31;3.20;;;3.00;;
21503;SDS011;10913;51.992;9.228;2023-08-30T01:58:56;3.83;;;3.15;;
21503;SDS011;10913;51.992;9.228;2023-08-30T02:01:21;3.17;;;2.97;;
21503;SDS011;10913;51.992;9.228;2023-08-30T02:03:47;4.15;;;3.33;;
21503;SDS011;10913;51.992;9.228;2023-08-30T02:06:23;4.13;;;3.47;;
21503;SDS011;10913;51.992;9.228;2023-08-30T02:09:09;3.83;;;3.53;;
21503;SDS011;10913;51.992;9.228;2023-08-30T02:11:36;3.88;;;3.58;;
21503;SDS011;10913;51.992;9.228;2023-08-30T02:14:03;4.00;;;3.70;;
21503;SDS011;10913;51.992;9.228;2023-08-30T02:16:32;4.22;;;3.83;;
21503;SDS011;10913;51.992;9.228;2023-08-30T02:18:58;4.75;;;3.35;;
21503;SDS011;10913;51.992;9.228;2023-08-30T02:21:24;3.50;;;3.25;;
21503;SDS011;10913;51.992;9.228;2023-08-30T02:23:53;3.42;;;3.15;;
21503;SDS011;10913;51.992;9.228;2023-08-30T02:26:19;3.53;;;3.25;;
21503;SDS011;10913;51.992;9.228;2023-08-30T02:28:44;3.45;;;3.15;;
21503;SDS011;10913;51.992;9.228;2023-08-30T02:31:10;3.85;;;3.55;;
21503;SDS011;10913;51.992;9.228;2023-08-30T02:33:35;4.68;;;3.55;;
21503;SDS011;10913;51.992;9.228;2023-08-30T02:36:02;4.07;;;3.78;;
21503;SDS011;10913;51.992;9.228;2023-08-30T02:38:28;4.40;;;3.25;;
21503;SDS011;10913;51.992;9.228;2023-08-30T02:40:53;4.15;;;3.33;;
21503;SDS011;10913;51.992;9.228;2023-08-30T02:43:18;4.00;;;3.60;;
21503;SDS011;10913;51.992;9.228;2023-08-30T02:45:44;3.80;;;3.50;;
21503;SDS011;10913;51.992;9.228;2023-08-30T02:48:09;3.72;;;3.42;;
21503;SDS011;10913;51.992;9.228;2023-08-30T02:50:34;3.63;;;3.33;;
21503;SDS011;10913;51.992;9.228;2023-08-30T02:53:00;3.40;;;3.20;;
21503;SDS011;10913;51.992;9.228;2023-08-30T02:55:25;3.97;;;3.47;;
21503;SDS011;10913;51.992;9.228;2023-08-30T02:57:50;3.78;;;3.47;;
21503;SDS011;10913;51.992;9.228;2023-08-30T03:00:16;4.35;;;3.95;;
21503;SDS011;10913;51.992;9.228;2023-08-30T03:02:41;5.47;;;3.95;;
21503;SDS011;10913;51.992;9.228;2023-08-30T03:05:07;5.53;;;3.97;;
21503;SDS011;10913;51.992;9.228;2023-08-30T03:07:32;4.90;;;3.92;;
21503;SDS011;10913;51.992;9.228;2023-08-30T03:09:57;4.30;;;3.90;;
21503;SDS011;10913;51.992;9.228;2023-08-30T03:12:23;5.38;;;4.05;;
21503;SDS011;10913;51.992;9.228;2023-08-30T03:14:48;4.53;;;4.13;;
21503;SDS011;10913;51.992;9.228;2023-08-30T03:17:14;4.53;;;4.00;;
21503;SDS011;10913;51.992;9.228;2023-08-30T03:19:39;4.43;;;4.00;;
21503;SDS011;10913;51.992;9.228;2023-08-30T03:22:04;5.93;;;4.45;;
21503;SDS011;10913;51.992;9.228;2023-08-30T03:24:30;4.78;;;4.25;;
21503;SDS011;10913;51.992;9.228;2023-08-30T03:26:55;5.55;;;4.78;;
21503;SDS011;10913;51.992;9.228;2023-08-30T03:29:21;5.07;;;4.68;;
21503;SDS011;10913;51.992;9.228;2023-08-30T03:31:47;5.35;;;4.55;;
21503;SDS011;10913;51.992;9.228;2023-08-30T03:34:12;4.97;;;4.57;;
21503;SDS011;10913;51.992;9.228;2023-08-30T03:36:38;6.38;;;5.78;;
21503;SDS011;10913;51.992;9.228;2023-08-30T03:39:04;6.55;;;5.95;;
21503;SDS011;10913;51.992;9.228;2023-08-30T03:41:29;6.90;;;6.20;;
21503;SDS011;10913;51.992;9.228;2023-08-30T03:43:54;6.53;;;5.93;;
21503;SDS011;10913;51.992;9.228;2023-08-30T03:46:20;6.82;;;6.05;;
21503;SDS011;10913;51.992;9.228;2023-08-30T03:48:45;6.05;;;5.30;;
21503;SDS011;10913;51.992;9.228;2023-08-30T03:51:10;6.15;;;5.55;;
21503;SDS011;10913;51.992;9.228;2023-08-30T03:53:36;5.47;;;4.97;;
21503;SDS011;10913;51.992;9.228;2023-08-30T03:56:01;5.38;;;4.90;;
21503;SDS011;10913;51.992;9.228;2023-08-30T03:58:28;4.45;;;4.05;;
21503;SDS011;10913;51.992;9.228;2023-08-30T04:00:54;5.13;;;4.72;;
21503;SDS011;10913;51.992;9.228;2023-08-30T04:03:19;5.18;;;4.45;;
21503;SDS011;10913;51.992;9.228;2023-08-30T04:05:44;4.60;;;4.20;;
21503;SDS011;10913;51.992;9.228;2023-08-30T04:08:10;4.60;;;4.20;;
21503;SDS011;10913;51.992;9.228;2023-08-30T04:10:39;5.68;;;5.18;;
21503;SDS011;10913;51.992;9.228;2023-08-30T04:13:05;4.97;;;4.47;;
21503;SDS011;10913;51.992;9.228;2023-08-30T04:15:35;6.53;;;4.93;;
21503;SDS011;10913;51.992;9.228;2023-08-30T04:18:02;5.50;;;5.00;;
21503;SDS011;10913;51.992;9.228;2023-08-30T04:20:28;5.03;;;4.53;;
21503;SDS011;10913;51.992;9.228;2023-08-30T04:22:54;5.20;;;4.70;;
21503;SDS011;10913;51.992;9.228;2023-08-30T04:25:21;5.78;;;5.20;;
21503;SDS011;10913;51.992;9.228;2023-08-30T04:27:47;6.20;;;5.60;;
21503;SDS011;10913;51.992;9.228;2023-08-30T04:30:12;7.05;;;5.72;;
21503;SDS011;10913;51.992;9.228;2023-08-30T04:32:38;6.15;;;5.25;;
21503;SDS011;10913;51.992;9.228;2023-08-30T04:35:04;5.68;;;4.82;;
21503;SDS011;10913;51.992;9.228;2023-08-30T04:37:30;6.68;;;4.82;;
21503;SDS011;10913;51.992;9.228;2023-08-30T04:39:56;5.90;;;5.07;;
21503;SDS011;10913;51.992;9.228;2023-08-30T04:42:22;7.20;;;5.10;;
21503;SDS011;10913;51.992;9.228;2023-08-30T04:44:47;7.47;;;5.70;;
21503;SDS011;10913;51.992;9.228;2023-08-30T04:47:13;5.45;;;4.93;;
21503;SDS011;10913;51.992;9.228;2023-08-30T04:49:38;5.60;;;5.10;;
21503;SDS011;10913;51.992;9.228;2023-08-30T04:52:04;7.50;;;5.18;;
21503;SDS011;10913;51.992;9.228;2023-08-30T04:54:30;5.25;;;4.50;;
21503;SDS011;10913;51.992;9.228;2023-08-30T04:56:55;5.45;;;4.72;;
21503;SDS011;10913;51.992;9.228;2023-08-30T04:59:22;5.47;;;4.97;;
21503;SDS011;10913;51.992;9.228;2023-08-30T05:01:49;5.18;;;4.78;;
21503;SDS011;10913;51.992;9.228;2023-08-30T05:04:16;5.38;;;4.88;;
21503;SDS011;10913;51.992;9.228;2023-08-30T05:06:41;5.63;;;5.03;;
21503;SDS011;10913;51.992;9.228;2023-08-30T05:09:07;5.82;;;5.10;;
21503;SDS011;10913;51.992;9.228;2023-08-30T05:11:32;5.30;;;4.68;;
21503;SDS011;10913;51.992;9.228;2023-08-30T05:13:57;4.93;;;4.43;;
21503;SDS011;10913;51.992;9.228;2023-08-30T05:16:23;4.97;;;4.57;;
21503;SDS011;10913;51.992;9.228;2023-08-30T05:18:48;5.03;;;4.53;;
21503;SDS011;10913;51.992;9.228;2023-08-30T05:21:14;4.72;;;4.32;;
21503;SDS011;10913;51.992;9.228;2023-08-30T05:23:39;5.50;;;5.00;;
21503;SDS011;10913;51.992;9.228;2023-08-30T05:26:07;5.45;;;4.95;;
21503;SDS011;10913;51.992;9.228;2023-08-30T05:28:34;5.10;;;4.60;;
21503;SDS011;10913;51.992;9.228;2023-08-30T05:30:59;5.18;;;4.68;;
21503;SDS011;10913;51.992;9.228;2023-08-30T05:33:24;6.32;;;5.63;;
21503;SDS011;10913;51.992;9.228;2023-08-30T05:35:50;6.25;;;5.10;;
21503;SDS011;10913;51.992;9.228;2023-08-30T05:38:15;5.55;;;5.10;;
21503;SDS011;10913;51.992;9.228;2023-08-30T05:40:40;5.90;;;5.30;;
21503;SDS011;10913;51.992;9.228;2023-08-30T05:43:09;6.50;;;5.90;;
21503;SDS011;10913;51.992;9.228;2023-08-30T05:45:35;5.78;;;5.28;;
21503;SDS011;10913;51.992;9.228;2023-08-30T05:48:00;6.03;;;5.40;;
21503;SDS011;10913;51.992;9.228;2023-08-30T05:50:25;5.85;;;5.25;;
21503;SDS011;10913;51.992;9.228;2023-08-30T05:52:51;4.93;;;4.53;;
21503;SDS011;10913;51.992;9.228;2023-08-30T05:55:16;5.80;;;5.30;;
21503;SDS011;10913;51.992;9.228;2023-08-30T05:57:42;5.60;;;5.10;;
21503;SDS011;10913;51.992;9.228;2023-08-30T06:00:07;5.93;;;5.43;;
21503;SDS011;10913;51.992;9.228;2023-08-30T06:02:33;6.38;;;5.28;;
21503;SDS011;10913;51.992;9.228;2023-08-30T06:04:59;5.97;;;5.38;;
21503;SDS011;10913;51.992;9.228;2023-08-30T06:07:24;7.40;;;5.65;;
21503;SDS011;10913;51.992;9.228;2023-08-30T06:09:50;6.35;;;5.75;;
21503;SDS011;10913;51.992;9.228;2023-08-30T06:12:15;7.88;;;7.07;;
21503;SDS011;10913;51.992;9.228;2023-08-30T06:14:40;6.60;;;6.00;;
21503;SDS011;10913;51.992;9.228;2023-08-30T06:17:06;7.22;;;6.53;;
21503;SDS011;10913;51.992;9.228;2023-08-30T06:19:32;6.65;;;5.90;;
21503;SDS011;10913;51.992;9.228;2023-08-30T06:21:57;6.65;;;6.05;;
21503;SDS011;10913;51.992;9.228;2023-08-30T06:24:22;6.13;;;5.63;;
21503;SDS011;10913;51.992;9.228;2023-08-30T06:26:48;7.50;;;6.80;;
21503;SDS011;10913;51.992;9.228;2023-08-30T06:29:13;7.40;;;6.70;;
21503;SDS011;10913;51.992;9.228;2023-08-30T06:31:38;8.77;;;7.20;;
21503;SDS011;10913;51.992;9.228;2023-08-30T06:34:05;7.53;;;6.60;;
21503;SDS011;10913;51.992;9.228;2023-08-30T06:36:30;7.88;;;7.07;;
21503;SDS011;10913;51.992;9.228;2023-08-30T06:38:55;9.93;;;8.88;;
21503;SDS011;10913;51.992;9.228;2023-08-30T06:41:21;8.88;;;7.95;;
21503;SDS011;10913;51.992;9.228;2023-08-30T06:43:46;9.15;;;8.20;;
21503;SDS011;10913;51.992;9.228;2023-08-30T06:46:11;8.63;;;7.70;;
21503;SDS011;10913;51.992;9.228;2023-08-30T06:48:37;8.45;;;7.65;;
21503;SDS011;10913;51.992;9.228;2023-08-30T06:51:02;8.38;;;7.45;;
21503;SDS011;10913;51.992;9.228;2023-08-30T06:53:28;7.53;;;6.75;;
21503;SDS011;10913;51.992;9.228;2023-08-30T06:56:00;7.60;;;6.82;;
21503;SDS011;10913;51.992;9.228;2023-08-30T06:58:25;11.05;;;7.85;;
21503;SDS011;10913;51.992;9.228;2023-08-30T07:00:51;6.80;;;5.93;;
21503;SDS011;10913;51.992;9.228;2023-08-30T07:03:17;6.40;;;5.63;;
21503;SDS011;10913;51.992;9.228;2023-08-30T07:05:42;6.57;;;5.55;;
21503;SDS011;10913;51.992;9.228;2023-08-30T07:08:13;6.35;;;5.50;;
21503;SDS011;10913;51.992;9.228;2023-08-30T07:10:41;8.50;;;7.00;;
21503;SDS011;10913;51.992;9.228;2023-08-30T07:13:06;8.93;;;7.22;;
21503;SDS011;10913;51.992;9.228;2023-08-30T07:15:35;6.45;;;5.80;;
21503;SDS011;10913;51.992;9.228;2023-08-30T07:18:01;6.40;;;5.80;;
21503;SDS011;10913;51.992;9.228;2023-08-30T07:20:28;7.07;;;6.15;;
21503;SDS011;10913;51.992;9.228;2023-08-30T07:22:54;5.30;;;4.60;;
21503;SDS011;10913;51.992;9.228;2023-08-30T07:25:19;4.72;;;4.32;;
21503;SDS011;10913;51.992;9.228;2023-08-30T07:27:44;5.95;;;5.18;;
21503;SDS011;10913;51.992;9.228;2023-08-30T07:30:10;6.07;;;5.47;;
21503;SDS011;10913;51.992;9.228;2023-08-30T07:32:35;6.60;;;5.57;;
21503;SDS011;10913;51.992;9.228;2023-08-30T07:35:03;5.90;;;5.05;;
21503;SDS011;10913;51.992;9.228;2023-08-30T07:37:29;4.95;;;4.40;;
21503;SDS011;10913;51.992;9.228;2023-08-30T07:39:54;5.18;;;4.68;;
21503;SDS011;10913;51.992;9.228;2023-08-30T07:42:19;7.32;;;5.78;;
21503;SDS011;10913;51.992;9.228;2023-08-30T07:44:45;6.60;;;5.68;;
21503;SDS011;10913;51.992;9.228;2023-08-30T07:47:10;5.00;;;4.60;;
21503;SDS011;10913;51.992;9.228;2023-08-30T07:49:36;6.72;;;6.03;;
21503;SDS011;10913;51.992;9.228;2023-08-30T07:52:01;6.53;;;5.93;;
21503;SDS011;10913;51.992;9.228;2023-08-30T07:54:27;6.97;;;6.32;;
21503;SDS011;10913;51.992;9.228;2023-08-30T07:56:53;7.70;;;6.82;;
21503;SDS011;10913;51.992;9.228;2023-08-30T07:59:18;8.75;;;7.00;;
21503;SDS011;10913;51.992;9.228;2023-08-30T08:01:44;7.13;;;6.43;;
21503;SDS011;10913;51.992;9.228;2023-08-30T08:04:09;6.55;;;5.95;;
21503;SDS011;10913;51.992;9.228;2023-08-30T08:06:34;8.13;;;7.32;;
21503;SDS011;10913;51.992;9.228;2023-08-30T08:09:00;6.10;;;5.40;;
21503;SDS011;10913;51.992;9.228;2023-08-30T08:11:25;7.55;;;6.47;;
21503;SDS011;10913;51.992;9.228;2023-08-30T08:13:51;6.05;;;5.45;;
21503;SDS011;10913;51.992;9.228;2023-08-30T08:16:16;7.07;;;5.95;;
21503;SDS011;10913;51.992;9.228;2023-08-30T08:18:41;7.43;;;6.72;;
21503;SDS011;10913;51.992;9.228;2023-08-30T08:21:07;7.50;;;6.80;;
21503;SDS011;10913;51.992;9.228;2023-08-30T08:23:32;7.57;;;6.72;;
21503;SDS011;10913;51.992;9.228;2023-08-30T08:25:58;7.82;;;7.03;;
21503;SDS011;10913;51.992;9.228;2023-08-30T08:28:24;6.63;;;5.75;;
21503;SDS011;10913;51.992;9.228;2023-08-30T08:30:49;7.25;;;5.90;;
21503;SDS011;10913;51.992;9.228;2023-08-30T08:33:16;8.02;;;7.22;;
21503;SDS011;10913;51.992;9.228;2023-08-30T08:35:42;9.75;;;8.23;;
21503;SDS011;10913;51.992;9.228;2023-08-30T08:38:09;11.70;;;10.45;;
21503;SDS011;10913;51.992;9.228;2023-08-30T08:40:38;9.82;;;8.80;;
21503;SDS011;10913;51.992;9.228;2023-08-30T08:43:06;10.43;;;9.20;;
21503;SDS011;10913;51.992;9.228;2023-08-30T08:45:36;10.88;;;8.93;;
21503;SDS011;10913;51.992;9.228;2023-08-30T08:48:03;12.10;;;10.82;;
21503;SDS011;10913;51.992;9.228;2023-08-30T08:50:29;14.65;;;11.75;;
21503;SDS011;10913;51.992;9.228;2023-08-30T08:52:55;11.05;;;9.90;;
21503;SDS011;10913;51.992;9.228;2023-08-30T08:55:21;12.70;;;11.25;;
21503;SDS011;10913;51.992;9.228;2023-08-30T08:57:47;12.43;;;10.68;;
21503;SDS011;10913;51.992;9.228;2023-08-30T09:00:14;12.98;;;11.15;;
21503;SDS011;10913;51.992;9.228;2023-08-30T09:02:41;11.10;;;9.93;;
21503;SDS011;10913;51.992;9.228;2023-08-30T09:05:07;13.52;;;11.50;;
21503;SDS011;10913;51.992;9.228;2023-08-30T09:07:33;11.15;;;9.95;;
21503;SDS011;10913;51.992;9.228;2023-08-30T09:10:00;11.93;;;10.20;;
21503;SDS011;10913;51.992;9.228;2023-08-30T09:12:26;11.48;;;10.25;;
21503;SDS011;10913;51.992;9.228;2023-08-30T09:14:55;14.43;;;12.57;;
21503;SDS011;10913;51.992;9.228;2023-08-30T09:17:22;15.88;;;14.25;;
21503;SDS011;10913;51.992;9.228;2023-08-30T09:19:47;16.95;;;15.15;;
21503;SDS011;10913;51.992;9.228;2023-08-30T09:22:13;15.38;;;13.77;;
21503;SDS011;10913;51.992;9.228;2023-08-30T09:24:38;13.95;;;12.60;;
21503;SDS011;10913;51.992;9.228;2023-08-30T09:27:04;14.70;;;13.15;;
21503;SDS011;10913;51.992;9.228;2023-08-30T09:29:30;16.48;;;14.75;;
21503;SDS011;10913;51.992;9.228;2023-08-30T09:31:57;12.75;;;11.40;;
21503;SDS011;10913;51.992;9.228;2023-08-30T09:34:23;14.70;;;12.65;;
21503;SDS011;10913;51.992;9.228;2023-08-30T09:36:52;13.55;;;12.15;;
21503;SDS011;10913;51.992;9.228;2023-08-30T09:39:18;13.07;;;11.38;;
21503;SDS011;10913;51.992;9.228;2023-08-30T09:41:44;13.13;;;9.85;;
21503;SDS011;10913;51.992;9.228;2023-08-30T09:44:15;14.20;;;11.48;;
21503;SDS011;10913;51.992;9.228;2023-08-30T09:49:07;10.18;;;9.13;;
21503;SDS011;10913;51.992;9.228;2023-08-30T09:51:34;11.80;;;10.40;;
21503;SDS011;10913;51.992;9.228;2023-08-30T09:54:03;11.10;;;10.00;;
21503;SDS011;10913;51.992;9.228;2023-08-30T09:56:30;13.02;;;10.75;;
21503;SDS011;10913;51.992;9.228;2023-08-30T09:58:57;10.38;;;9.27;;
21503;SDS011;10913;51.992;9.228;2023-08-30T10:01:25;12.00;;;10.82;;
21503;SDS011;10913;51.992;9.228;2023-08-30T10:03:51;10.50;;;9.27;;
21503;SDS011;10913;51.992;9.228;2023-08-30T10:06:19;8.52;;;7.13;;
21503;SDS011;10913;51.992;9.228;2023-08-30T10:08:45;9.43;;;8.43;;
21503;SDS011;10913;51.992;9.228;2023-08-30T10:11:12;7.65;;;6.75;;
21503;SDS011;10913;51.992;9.228;2023-08-30T10:13:38;6.03;;;5.43;;
21503;SDS011;10913;51.992;9.228;2023-08-30T10:16:07;7.30;;;6.20;;
21503;SDS011;10913;51.992;9.228;2023-08-30T10:18:37;6.30;;;5.70;;
21503;SDS011;10913;51.992;9.228;2023-08-30T10:21:05;7.28;;;5.20;;
21503;SDS011;10913;51.992;9.228;2023-08-30T10:23:33;5.32;;;4.60;;
21503;SDS011;10913;51.992;9.228;2023-08-30T10:26:01;6.32;;;5.60;;
21503;SDS011;10913;51.992;9.228;2023-08-30T10:28:28;9.20;;;7.35;;
21503;SDS011;10913;51.992;9.228;2023-08-30T10:30:55;7.90;;;7.15;;
21503;SDS011;10913;51.992;9.228;2023-08-30T10:33:20;13.10;;;11.55;;
21503;SDS011;10913;51.992;9.228;2023-08-30T10:35:50;9.73;;;8.77;;
21503;SDS011;10913;51.992;9.228;2023-08-30T10:38:26;9.30;;;8.38;;
21503;SDS011;10913;51.992;9.228;2023-08-30T10:40:53;11.57;;;9.38;;
21503;SDS011;10913;51.992;9.228;2023-08-30T10:43:27;8.85;;;7.95;;
21503;SDS011;10913;51.992;9.228;2023-08-30T10:46:01;9.85;;;8.30;;
21503;SDS011;10913;51.992;9.228;2023-08-30T10:48:34;10.13;;;9.20;;
21503;SDS011;10913;51.992;9.228;2023-08-30T10:51:01;8.90;;;8.10;;
21503;SDS011;10913;51.992;9.228;2023-08-30T10:53:29;9.98;;;8.38;;
21503;SDS011;10913;51.992;9.228;2023-08-30T10:56:10;9.43;;;8.30;;
21503;SDS011;10913;51.992;9.228;2023-08-30T10:58:43;6.50;;;5.90;;
21503;SDS011;10913;51.992;9.228;2023-08-30T11:01:09;8.70;;;7.90;;
21503;SDS011;10913;51.992;9.228;2023-08-30T11:03:37;9.02;;;8.13;;
21503;SDS011;10913;51.992;9.228;2023-08-30T11:06:03;8.18;;;7.38;;
21503;SDS011;10913;51.992;9.228;2023-08-30T11:08:28;10.98;;;9.23;;
21503;SDS011;10913;51.992;9.228;2023-08-30T11:11:04;9.23;;;8.38;;
21503;SDS011;10913;51.992;9.228;2023-08-30T11:13:30;9.20;;;8.25;;
21503;SDS011;10913;51.992;9.228;2023-08-30T11:15:59;9.35;;;7.78;;
21503;SDS011;10913;51.992;9.228;2023-08-30T11:18:25;8.38;;;7.57;;
21503;SDS011;10913;51.992;9.228;2023-08-30T11:21:00;9.38;;;8.27;;
21503;SDS011;10913;51.992;9.228;2023-08-30T11:23:27;8.05;;;6.72;;
21503;SDS011;10913;51.992;9.228;2023-08-30T11:25:53;6.85;;;5.25;;
21503;SDS011;10913;51.992;9.228;2023-08-30T11:28:24;7.63;;;5.43;;
21503;SDS011;10913;51.992;9.228;2023-08-30T11:30:53;5.97;;;5.38;;
21503;SDS011;10913;51.992;9.228;2023-08-30T11:33:19;5.88;;;5.38;;
21503;SDS011;10913;51.992;9.228;2023-08-30T11:35:45;6.90;;;5.53;;
21503;SDS011;10913;51.992;9.228;2023-08-30T11:38:14;6.10;;;5.50;;
21503;SDS011;10913;51.992;9.228;2023-08-30T11:40:39;8.70;;;7.50;;
21503;SDS011;10913;51.992;9.228;2023-08-30T11:43:06;7.97;;;7.20;;
21503;SDS011;10913;51.992;9.228;2023-08-30T11:45:32;9.48;;;7.55;;
21503;SDS011;10913;51.992;9.228;2023-08-30T11:47:59;10.02;;;8.38;;
21503;SDS011;10913;51.992;9.228;2023-08-30T11:50:25;8.32;;;7.40;;
21503;SDS011;10913;51.992;9.228;2023-08-30T11:52:51;10.57;;;8.40;;
21503;SDS011;10913;51.992;9.228;2023-08-30T11:55:17;9.00;;;8.10;;
21503;SDS011;10913;51.992;9.228;2023-08-30T11:57:44;8.02;;;7.22;;
21503;SDS011;10913;51.992;9.228;2023-08-30T12:00:10;9.35;;;8.35;;
21503;SDS011;10913;51.992;9.228;2023-08-30T12:02:36;8.23;;;7.40;;
21503;SDS011;10913;51.992;9.228;2023-08-30T12:05:02;8.80;;;7.90;;
21503;SDS011;10913;51.992;9.228;2023-08-30T12:07:29;9.20;;;8.00;;
21503;SDS011;10913;51.992;9.228;2023-08-30T12:10:05;9.77;;;8.77;;
21503;SDS011;10913;51.992;9.228;2023-08-30T12:12:31;10.93;;;9.10;;
21503;SDS011;10913;51.992;9.228;2023-08-30T12:14:56;9.25;;;8.13;;
21503;SDS011;10913;51.992;9.228;2023-08-30T12:17:22;9.68;;;8.02;;
21503;SDS011;10913;51.992;9.228;2023-08-30T12:19:57;9.82;;;8.73;;
21503;SDS011;10913;51.992;9.228;2023-08-30T12:22:23;8.40;;;7.07;;
21503;SDS011;10913;51.992;9.228;2023-08-30T12:24:48;6.63;;;5.93;;
21503;SDS011;10913;51.992;9.228;2023-08-30T12:27:14;8.02;;;6.97;;
21503;SDS011;10913;51.992;9.228;2023-08-30T12:29:39;9.70;;;7.82;;
21503;SDS011;10913;51.992;9.228;2023-08-30T12:32:05;7.68;;;6.88;;
21503;SDS011;10913;51.992;9.228;2023-08-30T12:34:31;8.48;;;7.50;;
21503;SDS011;10913;51.992;9.228;2023-08-30T12:36:57;7.45;;;6.75;;
21503;SDS011;10913;51.992;9.228;2023-08-30T12:39:22;8.82;;;6.80;;
21503;SDS011;10913;51.992;9.228;2023-08-30T12:41:48;6.70;;;5.82;;
21503;SDS011;10913;51.992;9.228;2023-08-30T12:44:13;8.40;;;7.18;;
21503;SDS011;10913;51.992;9.228;2023-08-30T12:46:39;7.97;;;7.18;;
21503;SDS011;10913;51.992;9.228;2023-08-30T12:49:04;7.68;;;6.97;;
21503;SDS011;10913;51.992;9.228;2023-08-30T12:51:30;7.55;;;5.95;;
21503;SDS011;10913;51.992;9.228;2023-08-30T12:53:55;7.05;;;6.15;;
21503;SDS011;10913;51.992;9.228;2023-08-30T12:56:21;7.95;;;7.00;;
21503;SDS011;10913;51.992;9.228;2023-08-30T12:58:46;7.50;;;6.10;;
21503;SDS011;10913;51.992;9.228;2023-08-30T13:01:12;8.52;;;6.28;;
21503;SDS011;10913;51.992;9.228;2023-08-30T13:03:37;7.25;;;6.55;;
21503;SDS011;10913;51.992;9.228;2023-08-30T13:06:02;9.18;;;7.18;;
21503;SDS011;10913;51.992;9.228;2023-08-30T13:08:29;5.88;;;5.22;;
21503;SDS011;10913;51.992;9.228;2023-08-30T13:10:54;6.30;;;5.50;;
21503;SDS011;10913;51.992;9.228;2023-08-30T13:13:20;6.57;;;5.40;;
21503;SDS011;10913;51.992;9.228;2023-08-30T13:15:46;4.63;;;4.20;;
21503;SDS011;10913;51.992;9.228;2023-08-30T13:18:13;6.47;;;4.50;;
21503;SDS011;10913;51.992;9.228;2023-08-30T13:20:40;4.47;;;4.07;;
21503;SDS011;10913;51.992;9.228;2023-08-30T13:23:06;4.82;;;4.32;;
21503;SDS011;10913;51.992;9.228;2023-08-30T13:25:31;4.75;;;4.00;;
21503;SDS011;10913;51.992;9.228;2023-08-30T13:27:56;4.75;;;4.03;;
21503;SDS011;10913;51.992;9.228;2023-08-30T13:30:22;4.35;;;3.83;;
21503;SDS011;10913;51.992;9.228;2023-08-30T13:32:47;4.38;;;3.78;;
21503;SDS011;10913;51.992;9.228;2023-08-30T13:35:12;4.53;;;4.07;;
21503;SDS011;10913;51.992;9.228;2023-08-30T13:37:38;6.32;;;4.32;;
21503;SDS011;10913;51.992;9.228;2023-08-30T13:40:03;5.95;;;4.63;;
21503;SDS011;10913;51.992;9.228;2023-08-30T13:42:31;4.78;;;3.78;;
21503;SDS011;10913;51.992;9.228;2023-08-30T13:44:57;4.22;;;3.60;;
21503;SDS011;10913;51.992;9.228;2023-08-30T13:47:22;5.20;;;3.90;;
21503;SDS011;10913;51.992;9.228;2023-08-30T13:49:48;6.22;;;3.78;;
21503;SDS011;10913;51.992;9.228;2023-08-30T13:52:13;3.92;;;3.60;;
21503;SDS011;10913;51.992;9.228;2023-08-30T13:54:38;4.22;;;3.50;;
21503;SDS011;10913;51.992;9.228;2023-08-30T13:57:04;4.50;;;3.70;;
21503;SDS011;10913;51.992;9.228;2023-08-30T13:59:30;6.97;;;3.53;;
21503;SDS011;10913;51.992;9.228;2023-08-30T14:01:55;4.32;;;3.40;;
21503;SDS011;10913;51.992;9.228;2023-08-30T14:04:23;3.83;;;3.50;;
21503;SDS011;10913;51.992;9.228;2023-08-30T14:06:49;4.90;;;3.58;;
21503;SDS011;10913;51.992;9.228;2023-08-30T14:09:15;4.70;;;3.90;;
21503;SDS011;10913;51.992;9.228;2023-08-30T14:11:40;4.10;;;3.70;;
21503;SDS011;10913;51.992;9.228;2023-08-30T14:14:06;4.28;;;3.42;;
21503;SDS011;10913;51.992;9.228;2023-08-30T14:16:32;4.00;;;3.42;;
21503;SDS011;10913;51.992;9.228;2023-08-30T14:18:57;4.50;;;3.50;;
21503;SDS011;10913;51.992;9.228;2023-08-30T14:21:30;3.50;;;3.20;;
21503;SDS011;10913;51.992;9.228;2023-08-30T14:23:55;3.17;;;2.88;;
21503;SDS011;10913;51.992;9.228;2023-08-30T14:26:20;3.83;;;3.20;;
21503;SDS011;10913;51.992;9.228;2023-08-30T14:28:46;5.65;;;3.45;;
21503;SDS011;10913;51.992;9.228;2023-08-30T14:31:11;4.72;;;3.50;;
21503;SDS011;10913;51.992;9.228;2023-08-30T14:33:43;5.15;;;4.28;;
21503;SDS011;10913;51.992;9.228;2023-08-30T14:36:12;4.95;;;4.38;;
21503;SDS011;10913;51.992;9.228;2023-08-30T14:38:38;5.90;;;5.28;;
21503;SDS011;10913;51.992;9.228;2023-08-30T14:41:04;16.88;;;13.63;;
21503;SDS011;10913;51.992;9.228;2023-08-30T14:43:29;8.25;;;7.00;;
21503;SDS011;10913;51.992;9.228;2023-08-30T14:46:01;8.38;;;6.20;;